メインページ
METAR-TAF:

METAR-TAF

空港 :

コナ国際空港

カイルア・コナ, ハワイ州, アメリカ合衆国

緯度: 19-44-27N, 経度: 156-03-02W, 海抜: 13m

現時点の気象観測

当レポートは1時間4分前の00:53(UTC)に作成
南/南西の風 7kt
気温 27°C
湿度 62%
気圧 1016 hPa
視程: 16.1km
高度5000ftの千切れ雲あり

METAR: PHKO 100053Z 21007KT 10SM BKN050 27/19 A3001 RMK AO2 SLP163 T02670189

時間: 15:57 (01:57 UTC)

予報

当レポートは2時間22分前の23:35(UTC)に作成
予報は10日の 00時(UTC)から 10日の 24時(UTC)まで有効
南/南西の風 11kt
視程: 10km
高度5000ftの雲は散在している
10日の 0400時(UTC)から
変向風 6kt、最大14ktの突風を伴う
視程: 10km
高度5000ftの雲は散在している
10日の 2100時(UTC)から
南/南西の風 8kt
視程: 10km
高度4500ftの雲は散在している

TAF: PHKO 092335Z 1000/1024 20011KT P6SM SCT050 FM100400 VRB06G14KT P6SM SCT050 FM102100 21008KT P6SM SCT045

4,000以上の空港の気象観測と天気予報(METAR報とTAF報)

利用可能な観測所は地図上に黄色い丸と赤い丸で示す。

丸の上にカーソルを重ねると観測所名を参照できる。

次にクリックすると気象観測と天気予報を参照できる。

マップの切り替え:黒色「×」印の緑ボタンをクリックして拡大、「-」印の緑ボタンをクリックして縮小、緑色の三角印をクリックして隣りの地図に切り替え


METAR-TAF: